sensor_id;sensor_type;location;lat;lon;timestamp;P1;durP1;ratioP1;P2;durP2;ratioP2
41077;SDS011;26823;42.662;23.352;2023-04-25T00:00:19;4.38;;;3.88;;
41077;SDS011;26823;42.662;23.352;2023-04-25T00:02:45;3.80;;;3.28;;
41077;SDS011;26823;42.662;23.352;2023-04-25T00:05:11;4.57;;;3.60;;
41077;SDS011;26823;42.662;23.352;2023-04-25T00:07:37;5.80;;;4.40;;
41077;SDS011;26823;42.662;23.352;2023-04-25T00:10:03;3.72;;;3.42;;
41077;SDS011;26823;42.662;23.352;2023-04-25T00:12:29;5.28;;;4.10;;
41077;SDS011;26823;42.662;23.352;2023-04-25T00:14:55;5.82;;;3.95;;
41077;SDS011;26823;42.662;23.352;2023-04-25T00:17:22;4.93;;;4.18;;
41077;SDS011;26823;42.662;23.352;2023-04-25T00:19:49;6.30;;;4.93;;
41077;SDS011;26823;42.662;23.352;2023-04-25T00:22:15;5.75;;;4.68;;
41077;SDS011;26823;42.662;23.352;2023-04-25T00:24:41;5.50;;;4.68;;
41077;SDS011;26823;42.662;23.352;2023-04-25T00:27:06;5.63;;;4.35;;
41077;SDS011;26823;42.662;23.352;2023-04-25T00:29:32;5.32;;;4.80;;
41077;SDS011;26823;42.662;23.352;2023-04-25T00:31:58;5.78;;;4.53;;
41077;SDS011;26823;42.662;23.352;2023-04-25T00:34:23;5.90;;;4.32;;
41077;SDS011;26823;42.662;23.352;2023-04-25T00:36:49;6.10;;;5.43;;
41077;SDS011;26823;42.662;23.352;2023-04-25T00:39:14;6.25;;;5.22;;
41077;SDS011;26823;42.662;23.352;2023-04-25T00:41:40;7.05;;;5.10;;
41077;SDS011;26823;42.662;23.352;2023-04-25T00:44:05;5.72;;;4.63;;
41077;SDS011;26823;42.662;23.352;2023-04-25T00:46:34;5.95;;;4.45;;
41077;SDS011;26823;42.662;23.352;2023-04-25T00:49:00;6.65;;;4.90;;
41077;SDS011;26823;42.662;23.352;2023-04-25T00:51:26;6.63;;;4.60;;
41077;SDS011;26823;42.662;23.352;2023-04-25T00:53:51;7.80;;;5.20;;
41077;SDS011;26823;42.662;23.352;2023-04-25T00:56:18;6.60;;;4.97;;
41077;SDS011;26823;42.662;23.352;2023-04-25T00:58:46;5.93;;;4.40;;
41077;SDS011;26823;42.662;23.352;2023-04-25T01:01:12;5.78;;;4.50;;
41077;SDS011;26823;42.662;23.352;2023-04-25T01:03:38;6.85;;;4.60;;
41077;SDS011;26823;42.662;23.352;2023-04-25T01:06:10;5.78;;;4.00;;
41077;SDS011;26823;42.662;23.352;2023-04-25T01:08:37;5.95;;;4.13;;
41077;SDS011;26823;42.662;23.352;2023-04-25T01:11:04;6.13;;;4.13;;
41077;SDS011;26823;42.662;23.352;2023-04-25T01:13:30;4.60;;;3.95;;
41077;SDS011;26823;42.662;23.352;2023-04-25T01:15:57;5.85;;;4.35;;
41077;SDS011;26823;42.662;23.352;2023-04-25T01:18:23;7.05;;;4.30;;
41077;SDS011;26823;42.662;23.352;2023-04-25T01:20:50;7.95;;;5.03;;
41077;SDS011;26823;42.662;23.352;2023-04-25T01:23:16;6.50;;;4.35;;
41077;SDS011;26823;42.662;23.352;2023-04-25T01:25:42;4.65;;;3.80;;
41077;SDS011;26823;42.662;23.352;2023-04-25T01:28:08;5.72;;;3.47;;
41077;SDS011;26823;42.662;23.352;2023-04-25T01:30:33;8.55;;;4.25;;
41077;SDS011;26823;42.662;23.352;2023-04-25T01:32:59;5.57;;;3.80;;
41077;SDS011;26823;42.662;23.352;2023-04-25T01:35:26;6.13;;;4.07;;
41077;SDS011;26823;42.662;23.352;2023-04-25T01:37:51;4.35;;;3.55;;
41077;SDS011;26823;42.662;23.352;2023-04-25T01:40:17;4.35;;;3.53;;
41077;SDS011;26823;42.662;23.352;2023-04-25T01:42:43;3.97;;;3.50;;
41077;SDS011;26823;42.662;23.352;2023-04-25T01:45:10;5.20;;;2.97;;
41077;SDS011;26823;42.662;23.352;2023-04-25T01:47:36;4.72;;;3.60;;
41077;SDS011;26823;42.662;23.352;2023-04-25T01:50:02;4.95;;;3.67;;
41077;SDS011;26823;42.662;23.352;2023-04-25T01:52:29;4.75;;;3.55;;
41077;SDS011;26823;42.662;23.352;2023-04-25T01:54:55;4.32;;;3.65;;
41077;SDS011;26823;42.662;23.352;2023-04-25T01:57:22;5.55;;;4.22;;
41077;SDS011;26823;42.662;23.352;2023-04-25T01:59:47;5.05;;;3.85;;
41077;SDS011;26823;42.662;23.352;2023-04-25T02:02:13;4.72;;;3.78;;
41077;SDS011;26823;42.662;23.352;2023-04-25T02:04:38;4.75;;;3.92;;
41077;SDS011;26823;42.662;23.352;2023-04-25T02:07:04;8.27;;;4.25;;
41077;SDS011;26823;42.662;23.352;2023-04-25T02:09:29;5.25;;;4.13;;
41077;SDS011;26823;42.662;23.352;2023-04-25T02:11:55;5.53;;;4.38;;
41077;SDS011;26823;42.662;23.352;2023-04-25T02:14:20;5.85;;;4.22;;
41077;SDS011;26823;42.662;23.352;2023-04-25T02:16:46;4.57;;;3.78;;
41077;SDS011;26823;42.662;23.352;2023-04-25T02:19:12;4.53;;;3.88;;
41077;SDS011;26823;42.662;23.352;2023-04-25T02:21:37;5.95;;;4.43;;
41077;SDS011;26823;42.662;23.352;2023-04-25T02:24:03;5.40;;;4.55;;
41077;SDS011;26823;42.662;23.352;2023-04-25T02:26:29;6.13;;;4.32;;
41077;SDS011;26823;42.662;23.352;2023-04-25T02:28:56;5.00;;;4.50;;
41077;SDS011;26823;42.662;23.352;2023-04-25T02:31:21;6.88;;;5.30;;
41077;SDS011;26823;42.662;23.352;2023-04-25T02:33:47;4.78;;;4.00;;
41077;SDS011;26823;42.662;23.352;2023-04-25T02:36:13;5.78;;;4.47;;
41077;SDS011;26823;42.662;23.352;2023-04-25T02:38:38;5.90;;;4.53;;
41077;SDS011;26823;42.662;23.352;2023-04-25T02:41:04;4.75;;;4.03;;
41077;SDS011;26823;42.662;23.352;2023-04-25T02:43:30;6.13;;;4.57;;
41077;SDS011;26823;42.662;23.352;2023-04-25T02:46:01;6.05;;;5.00;;
41077;SDS011;26823;42.662;23.352;2023-04-25T02:48:27;5.75;;;4.45;;
41077;SDS011;26823;42.662;23.352;2023-04-25T02:50:54;5.68;;;4.35;;
41077;SDS011;26823;42.662;23.352;2023-04-25T02:53:19;6.03;;;4.93;;
41077;SDS011;26823;42.662;23.352;2023-04-25T02:55:45;6.28;;;5.28;;
41077;SDS011;26823;42.662;23.352;2023-04-25T02:58:10;6.30;;;4.88;;
41077;SDS011;26823;42.662;23.352;2023-04-25T03:00:36;7.47;;;5.72;;
41077;SDS011;26823;42.662;23.352;2023-04-25T03:03:01;6.95;;;4.93;;
41077;SDS011;26823;42.662;23.352;2023-04-25T03:05:26;6.22;;;5.40;;
41077;SDS011;26823;42.662;23.352;2023-04-25T03:07:52;7.13;;;5.30;;
41077;SDS011;26823;42.662;23.352;2023-04-25T03:10:17;6.55;;;5.22;;
41077;SDS011;26823;42.662;23.352;2023-04-25T03:12:42;8.85;;;6.13;;
41077;SDS011;26823;42.662;23.352;2023-04-25T03:15:08;9.48;;;6.25;;
41077;SDS011;26823;42.662;23.352;2023-04-25T03:17:34;7.40;;;6.05;;
41077;SDS011;26823;42.662;23.352;2023-04-25T03:19:59;9.20;;;6.18;;
41077;SDS011;26823;42.662;23.352;2023-04-25T03:22:25;7.75;;;6.10;;
41077;SDS011;26823;42.662;23.352;2023-04-25T03:24:50;7.88;;;5.95;;
41077;SDS011;26823;42.662;23.352;2023-04-25T03:27:16;8.65;;;6.40;;
41077;SDS011;26823;42.662;23.352;2023-04-25T03:29:42;8.77;;;6.57;;
41077;SDS011;26823;42.662;23.352;2023-04-25T03:32:15;8.70;;;6.32;;
41077;SDS011;26823;42.662;23.352;2023-04-25T03:34:40;11.20;;;6.88;;
41077;SDS011;26823;42.662;23.352;2023-04-25T03:37:06;7.53;;;6.50;;
41077;SDS011;26823;42.662;23.352;2023-04-25T03:39:31;8.40;;;6.95;;
41077;SDS011;26823;42.662;23.352;2023-04-25T03:41:57;8.82;;;6.72;;
41077;SDS011;26823;42.662;23.352;2023-04-25T03:44:22;10.05;;;6.97;;
41077;SDS011;26823;42.662;23.352;2023-04-25T03:46:49;9.40;;;7.03;;
41077;SDS011;26823;42.662;23.352;2023-04-25T03:49:15;8.52;;;6.28;;
41077;SDS011;26823;42.662;23.352;2023-04-25T03:51:41;9.38;;;6.88;;
41077;SDS011;26823;42.662;23.352;2023-04-25T03:54:06;8.80;;;7.07;;
41077;SDS011;26823;42.662;23.352;2023-04-25T03:56:32;9.27;;;7.22;;
41077;SDS011;26823;42.662;23.352;2023-04-25T03:58:58;10.70;;;6.53;;
41077;SDS011;26823;42.662;23.352;2023-04-25T04:01:23;8.48;;;6.97;;
41077;SDS011;26823;42.662;23.352;2023-04-25T04:03:48;14.48;;;7.60;;
41077;SDS011;26823;42.662;23.352;2023-04-25T04:06:14;11.20;;;7.53;;
41077;SDS011;26823;42.662;23.352;2023-04-25T04:08:39;9.73;;;7.47;;
41077;SDS011;26823;42.662;23.352;2023-04-25T04:11:05;9.43;;;7.15;;
41077;SDS011;26823;42.662;23.352;2023-04-25T04:13:31;11.13;;;7.90;;
41077;SDS011;26823;42.662;23.352;2023-04-25T04:15:56;9.85;;;6.68;;
41077;SDS011;26823;42.662;23.352;2023-04-25T04:18:22;9.70;;;7.07;;
41077;SDS011;26823;42.662;23.352;2023-04-25T04:20:48;9.60;;;6.78;;
41077;SDS011;26823;42.662;23.352;2023-04-25T04:23:13;9.77;;;7.13;;
41077;SDS011;26823;42.662;23.352;2023-04-25T04:25:39;8.88;;;6.72;;
41077;SDS011;26823;42.662;23.352;2023-04-25T04:28:05;11.20;;;7.20;;
41077;SDS011;26823;42.662;23.352;2023-04-25T04:30:31;8.88;;;7.50;;
41077;SDS011;26823;42.662;23.352;2023-04-25T04:32:56;8.75;;;6.53;;
41077;SDS011;26823;42.662;23.352;2023-04-25T04:35:22;7.55;;;5.97;;
41077;SDS011;26823;42.662;23.352;2023-04-25T04:37:48;7.88;;;6.78;;
41077;SDS011;26823;42.662;23.352;2023-04-25T04:40:14;7.95;;;6.40;;
41077;SDS011;26823;42.662;23.352;2023-04-25T04:42:43;7.95;;;6.45;;
41077;SDS011;26823;42.662;23.352;2023-04-25T04:45:10;10.43;;;7.22;;
41077;SDS011;26823;42.662;23.352;2023-04-25T04:47:37;6.63;;;5.43;;
41077;SDS011;26823;42.662;23.352;2023-04-25T04:50:04;7.95;;;6.53;;
41077;SDS011;26823;42.662;23.352;2023-04-25T04:52:36;8.18;;;6.20;;
41077;SDS011;26823;42.662;23.352;2023-04-25T04:55:02;7.32;;;5.78;;
41077;SDS011;26823;42.662;23.352;2023-04-25T04:57:29;9.07;;;6.90;;
41077;SDS011;26823;42.662;23.352;2023-04-25T04:59:54;8.75;;;6.63;;
41077;SDS011;26823;42.662;23.352;2023-04-25T05:02:20;7.97;;;6.53;;
41077;SDS011;26823;42.662;23.352;2023-04-25T05:04:46;11.10;;;6.82;;
41077;SDS011;26823;42.662;23.352;2023-04-25T05:07:11;8.50;;;6.03;;
41077;SDS011;26823;42.662;23.352;2023-04-25T05:09:37;9.68;;;6.68;;
41077;SDS011;26823;42.662;23.352;2023-04-25T05:12:02;9.35;;;6.38;;
41077;SDS011;26823;42.662;23.352;2023-04-25T05:14:28;11.55;;;7.78;;
41077;SDS011;26823;42.662;23.352;2023-04-25T05:16:54;8.73;;;7.53;;
41077;SDS011;26823;42.662;23.352;2023-04-25T05:19:19;10.15;;;7.78;;
41077;SDS011;26823;42.662;23.352;2023-04-25T05:21:45;13.65;;;9.32;;
41077;SDS011;26823;42.662;23.352;2023-04-25T05:24:10;11.02;;;8.82;;
41077;SDS011;26823;42.662;23.352;2023-04-25T05:26:35;12.27;;;8.93;;
41077;SDS011;26823;42.662;23.352;2023-04-25T05:29:02;10.63;;;8.50;;
41077;SDS011;26823;42.662;23.352;2023-04-25T05:31:27;14.93;;;9.40;;
41077;SDS011;26823;42.662;23.352;2023-04-25T05:33:52;11.07;;;7.82;;
41077;SDS011;26823;42.662;23.352;2023-04-25T05:36:18;11.43;;;8.15;;
41077;SDS011;26823;42.662;23.352;2023-04-25T05:38:44;12.00;;;8.68;;
41077;SDS011;26823;42.662;23.352;2023-04-25T05:41:10;11.73;;;8.88;;
41077;SDS011;26823;42.662;23.352;2023-04-25T05:43:35;13.13;;;8.90;;
41077;SDS011;26823;42.662;23.352;2023-04-25T05:46:01;14.98;;;9.13;;
41077;SDS011;26823;42.662;23.352;2023-04-25T05:48:26;10.00;;;7.78;;
41077;SDS011;26823;42.662;23.352;2023-04-25T05:50:51;11.82;;;8.50;;
41077;SDS011;26823;42.662;23.352;2023-04-25T05:53:17;10.15;;;8.23;;
41077;SDS011;26823;42.662;23.352;2023-04-25T05:55:44;9.93;;;7.32;;
41077;SDS011;26823;42.662;23.352;2023-04-25T05:58:09;10.88;;;7.95;;
41077;SDS011;26823;42.662;23.352;2023-04-25T06:00:34;8.57;;;6.28;;
41077;SDS011;26823;42.662;23.352;2023-04-25T06:03:00;8.60;;;6.50;;
41077;SDS011;26823;42.662;23.352;2023-04-25T06:05:26;12.30;;;7.38;;
41077;SDS011;26823;42.662;23.352;2023-04-25T06:07:51;9.13;;;6.97;;
41077;SDS011;26823;42.662;23.352;2023-04-25T06:10:17;8.68;;;6.63;;
41077;SDS011;26823;42.662;23.352;2023-04-25T06:12:42;10.30;;;6.20;;
41077;SDS011;26823;42.662;23.352;2023-04-25T06:15:08;7.28;;;5.60;;
41077;SDS011;26823;42.662;23.352;2023-04-25T06:17:33;10.18;;;6.82;;
41077;SDS011;26823;42.662;23.352;2023-04-25T06:19:59;7.60;;;5.40;;
41077;SDS011;26823;42.662;23.352;2023-04-25T06:22:24;8.75;;;6.03;;
41077;SDS011;26823;42.662;23.352;2023-04-25T06:24:50;10.45;;;6.35;;
41077;SDS011;26823;42.662;23.352;2023-04-25T06:27:15;7.45;;;5.50;;
41077;SDS011;26823;42.662;23.352;2023-04-25T06:29:40;8.55;;;7.35;;
41077;SDS011;26823;42.662;23.352;2023-04-25T06:32:06;8.00;;;6.43;;
41077;SDS011;26823;42.662;23.352;2023-04-25T06:34:31;9.02;;;5.90;;
41077;SDS011;26823;42.662;23.352;2023-04-25T06:36:57;11.52;;;6.40;;
41077;SDS011;26823;42.662;23.352;2023-04-25T06:39:22;7.15;;;5.85;;
41077;SDS011;26823;42.662;23.352;2023-04-25T06:41:50;7.50;;;5.85;;
41077;SDS011;26823;42.662;23.352;2023-04-25T06:44:16;6.72;;;5.45;;
41077;SDS011;26823;42.662;23.352;2023-04-25T06:46:41;10.13;;;6.32;;
41077;SDS011;26823;42.662;23.352;2023-04-25T06:49:07;11.02;;;6.47;;
41077;SDS011;26823;42.662;23.352;2023-04-25T06:51:32;7.78;;;5.72;;
41077;SDS011;26823;42.662;23.352;2023-04-25T06:53:58;8.35;;;4.78;;
41077;SDS011;26823;42.662;23.352;2023-04-25T06:56:23;7.03;;;4.93;;
41077;SDS011;26823;42.662;23.352;2023-04-25T06:58:49;6.38;;;4.90;;
41077;SDS011;26823;42.662;23.352;2023-04-25T07:01:14;7.97;;;5.50;;
41077;SDS011;26823;42.662;23.352;2023-04-25T07:03:40;8.45;;;5.32;;
41077;SDS011;26823;42.662;23.352;2023-04-25T07:06:05;6.15;;;5.55;;
41077;SDS011;26823;42.662;23.352;2023-04-25T07:08:31;7.85;;;5.03;;
41077;SDS011;26823;42.662;23.352;2023-04-25T07:10:56;5.60;;;4.65;;
41077;SDS011;26823;42.662;23.352;2023-04-25T07:13:22;6.30;;;4.60;;
41077;SDS011;26823;42.662;23.352;2023-04-25T07:15:47;7.10;;;4.63;;
41077;SDS011;26823;42.662;23.352;2023-04-25T07:18:13;5.68;;;4.15;;
41077;SDS011;26823;42.662;23.352;2023-04-25T07:20:39;8.18;;;4.50;;
41077;SDS011;26823;42.662;23.352;2023-04-25T07:23:04;5.97;;;4.45;;
41077;SDS011;26823;42.662;23.352;2023-04-25T07:25:30;6.50;;;4.85;;
41077;SDS011;26823;42.662;23.352;2023-04-25T07:27:55;5.82;;;4.55;;
41077;SDS011;26823;42.662;23.352;2023-04-25T07:30:21;9.02;;;5.35;;
41077;SDS011;26823;42.662;23.352;2023-04-25T07:32:53;8.60;;;5.88;;
41077;SDS011;26823;42.662;23.352;2023-04-25T07:35:19;5.57;;;4.78;;
41077;SDS011;26823;42.662;23.352;2023-04-25T07:37:45;9.77;;;4.97;;
41077;SDS011;26823;42.662;23.352;2023-04-25T07:40:10;6.70;;;4.32;;
41077;SDS011;26823;42.662;23.352;2023-04-25T07:42:36;8.02;;;4.50;;
41077;SDS011;26823;42.662;23.352;2023-04-25T07:45:01;4.70;;;3.83;;
41077;SDS011;26823;42.662;23.352;2023-04-25T07:47:28;6.05;;;3.78;;
41077;SDS011;26823;42.662;23.352;2023-04-25T07:49:53;4.38;;;3.97;;
41077;SDS011;26823;42.662;23.352;2023-04-25T07:52:19;4.82;;;3.92;;
41077;SDS011;26823;42.662;23.352;2023-04-25T07:54:44;8.18;;;4.43;;
41077;SDS011;26823;42.662;23.352;2023-04-25T07:57:10;12.00;;;5.05;;
41077;SDS011;26823;42.662;23.352;2023-04-25T07:59:35;5.13;;;4.32;;
41077;SDS011;26823;42.662;23.352;2023-04-25T08:02:01;6.60;;;4.32;;
41077;SDS011;26823;42.662;23.352;2023-04-25T08:04:27;6.40;;;4.82;;
41077;SDS011;26823;42.662;23.352;2023-04-25T08:06:53;7.25;;;4.18;;
41077;SDS011;26823;42.662;23.352;2023-04-25T08:09:19;5.38;;;4.75;;
41077;SDS011;26823;42.662;23.352;2023-04-25T08:11:45;5.85;;;4.60;;
41077;SDS011;26823;42.662;23.352;2023-04-25T08:14:11;5.97;;;3.92;;
41077;SDS011;26823;42.662;23.352;2023-04-25T08:16:37;6.18;;;3.92;;
41077;SDS011;26823;42.662;23.352;2023-04-25T08:19:02;4.97;;;3.90;;
41077;SDS011;26823;42.662;23.352;2023-04-25T08:21:28;5.88;;;4.10;;
41077;SDS011;26823;42.662;23.352;2023-04-25T08:23:53;5.53;;;4.68;;
41077;SDS011;26823;42.662;23.352;2023-04-25T08:26:19;8.73;;;4.35;;
41077;SDS011;26823;42.662;23.352;2023-04-25T08:28:45;6.13;;;3.35;;
41077;SDS011;26823;42.662;23.352;2023-04-25T08:31:11;3.28;;;2.95;;
41077;SDS011;26823;42.662;23.352;2023-04-25T08:33:37;3.30;;;3.00;;
41077;SDS011;26823;42.662;23.352;2023-04-25T08:36:02;6.35;;;3.58;;
41077;SDS011;26823;42.662;23.352;2023-04-25T08:38:28;4.07;;;3.50;;
41077;SDS011;26823;42.662;23.352;2023-04-25T08:40:54;4.05;;;3.22;;
41077;SDS011;26823;42.662;23.352;2023-04-25T08:43:20;4.43;;;3.80;;
41077;SDS011;26823;42.662;23.352;2023-04-25T08:45:45;5.55;;;4.28;;
41077;SDS011;26823;42.662;23.352;2023-04-25T08:48:12;3.85;;;2.90;;
41077;SDS011;26823;42.662;23.352;2023-04-25T08:50:40;3.92;;;2.97;;
41077;SDS011;26823;42.662;23.352;2023-04-25T08:53:16;5.22;;;3.38;;
41077;SDS011;26823;42.662;23.352;2023-04-25T08:55:44;6.88;;;3.45;;
41077;SDS011;26823;42.662;23.352;2023-04-25T08:58:11;3.58;;;2.78;;
41077;SDS011;26823;42.662;23.352;2023-04-25T09:00:37;7.75;;;5.18;;
41077;SDS011;26823;42.662;23.352;2023-04-25T09:03:03;9.52;;;6.38;;
41077;SDS011;26823;42.662;23.352;2023-04-25T09:05:29;8.95;;;5.10;;
41077;SDS011;26823;42.662;23.352;2023-04-25T09:07:55;6.30;;;4.43;;
41077;SDS011;26823;42.662;23.352;2023-04-25T09:10:21;7.45;;;4.20;;
41077;SDS011;26823;42.662;23.352;2023-04-25T09:13:06;8.07;;;5.90;;
41077;SDS011;26823;42.662;23.352;2023-04-25T09:15:50;10.02;;;4.90;;
41077;SDS011;26823;42.662;23.352;2023-04-25T09:20:51;7.90;;;5.00;;
41077;SDS011;26823;42.662;23.352;2023-04-25T09:23:20;7.13;;;5.28;;
41077;SDS011;26823;42.662;23.352;2023-04-25T09:25:48;9.60;;;5.68;;
41077;SDS011;26823;42.662;23.352;2023-04-25T09:28:14;6.22;;;4.70;;
41077;SDS011;26823;42.662;23.352;2023-04-25T09:30:39;9.25;;;4.95;;
41077;SDS011;26823;42.662;23.352;2023-04-25T09:33:09;5.38;;;4.43;;
41077;SDS011;26823;42.662;23.352;2023-04-25T09:35:38;9.50;;;5.20;;
41077;SDS011;26823;42.662;23.352;2023-04-25T09:40:38;7.63;;;5.70;;
41077;SDS011;26823;42.662;23.352;2023-04-25T09:43:08;9.70;;;6.35;;
41077;SDS011;26823;42.662;23.352;2023-04-25T09:45:40;11.07;;;6.95;;
41077;SDS011;26823;42.662;23.352;2023-04-25T09:48:10;7.95;;;5.95;;
41077;SDS011;26823;42.662;23.352;2023-04-25T09:50:36;7.45;;;5.45;;
41077;SDS011;26823;42.662;23.352;2023-04-25T09:53:04;9.75;;;5.07;;
41077;SDS011;26823;42.662;23.352;2023-04-25T09:55:34;10.20;;;5.72;;
41077;SDS011;26823;42.662;23.352;2023-04-25T09:58:02;5.15;;;4.22;;
41077;SDS011;26823;42.662;23.352;2023-04-25T10:00:32;5.43;;;4.88;;
41077;SDS011;26823;42.662;23.352;2023-04-25T10:03:00;5.30;;;4.80;;
41077;SDS011;26823;42.662;23.352;2023-04-25T10:05:32;7.88;;;5.43;;
41077;SDS011;26823;42.662;23.352;2023-04-25T10:08:02;9.95;;;5.47;;
41077;SDS011;26823;42.662;23.352;2023-04-25T10:10:29;6.43;;;5.28;;
41077;SDS011;26823;42.662;23.352;2023-04-25T10:13:01;6.18;;;5.10;;
41077;SDS011;26823;42.662;23.352;2023-04-25T10:15:28;5.75;;;5.00;;
41077;SDS011;26823;42.662;23.352;2023-04-25T10:17:55;5.75;;;4.60;;
41077;SDS011;26823;42.662;23.352;2023-04-25T10:20:24;4.47;;;3.85;;
41077;SDS011;26823;42.662;23.352;2023-04-25T10:26:06;4.38;;;3.38;;
41077;SDS011;26823;42.662;23.352;2023-04-25T10:31:26;1.17;;;0.90;;
41077;SDS011;26823;42.662;23.352;2023-04-25T10:33:52;0.77;;;0.77;;
41077;SDS011;26823;42.662;23.352;2023-04-25T10:36:19;0.70;;;0.70;;
41077;SDS011;26823;42.662;23.352;2023-04-25T10:38:48;1.00;;;0.70;;
41077;SDS011;26823;42.662;23.352;2023-04-25T10:41:21;0.88;;;0.88;;
41077;SDS011;26823;42.662;23.352;2023-04-25T10:44:09;0.90;;;0.90;;
41077;SDS011;26823;42.662;23.352;2023-04-25T10:46:50;1.55;;;0.98;;
41077;SDS011;26823;42.662;23.352;2023-04-25T10:49:32;5.38;;;1.25;;
41077;SDS011;26823;42.662;23.352;2023-04-25T10:55:03;2.55;;;1.48;;
41077;SDS011;26823;42.662;23.352;2023-04-25T10:57:30;1.95;;;1.75;;
41077;SDS011;26823;42.662;23.352;2023-04-25T11:00:38;6.03;;;1.88;;
41077;SDS011;26823;42.662;23.352;2023-04-25T11:03:08;2.95;;;1.60;;
41077;SDS011;26823;42.662;23.352;2023-04-25T11:05:33;4.82;;;1.55;;
41077;SDS011;26823;42.662;23.352;2023-04-25T11:08:01;3.25;;;1.55;;
41077;SDS011;26823;42.662;23.352;2023-04-25T11:10:31;6.60;;;1.60;;
41077;SDS011;26823;42.662;23.352;2023-04-25T11:12:58;4.60;;;1.48;;
41077;SDS011;26823;42.662;23.352;2023-04-25T11:15:25;4.55;;;1.15;;
41077;SDS011;26823;42.662;23.352;2023-04-25T11:17:51;2.25;;;1.90;;
41077;SDS011;26823;42.662;23.352;2023-04-25T11:20:20;3.75;;;1.40;;
41077;SDS011;26823;42.662;23.352;2023-04-25T11:22:46;3.35;;;1.30;;
41077;SDS011;26823;42.662;23.352;2023-04-25T11:25:13;4.32;;;1.55;;
41077;SDS011;26823;42.662;23.352;2023-04-25T11:27:53;6.28;;;1.70;;
41077;SDS011;26823;42.662;23.352;2023-04-25T11:30:32;3.88;;;2.17;;
41077;SDS011;26823;42.662;23.352;2023-04-25T11:32:57;2.83;;;1.60;;
41077;SDS011;26823;42.662;23.352;2023-04-25T11:35:22;1.60;;;1.40;;
41077;SDS011;26823;42.662;23.352;2023-04-25T11:37:50;2.00;;;1.80;;
41077;SDS011;26823;42.662;23.352;2023-04-25T11:40:16;1.85;;;1.20;;
41077;SDS011;26823;42.662;23.352;2023-04-25T11:42:47;2.38;;;1.48;;
41077;SDS011;26823;42.662;23.352;2023-04-25T11:45:13;2.15;;;1.90;;
41077;SDS011;26823;42.662;23.352;2023-04-25T11:47:39;2.10;;;1.50;;
41077;SDS011;26823;42.662;23.352;2023-04-25T11:50:12;2.45;;;2.05;;
41077;SDS011;26823;42.662;23.352;2023-04-25T11:52:39;4.60;;;2.10;;
41077;SDS011;26823;42.662;23.352;2023-04-25T11:57:34;1.17;;;1.05;;
41077;SDS011;26823;42.662;23.352;2023-04-25T12:02:51;2.35;;;0.82;;
41077;SDS011;26823;42.662;23.352;2023-04-25T12:05:18;0.75;;;0.50;;
41077;SDS011;26823;42.662;23.352;2023-04-25T12:07:45;4.13;;;0.75;;
41077;SDS011;26823;42.662;23.352;2023-04-25T12:10:12;0.50;;;0.50;;
41077;SDS011;26823;42.662;23.352;2023-04-25T12:12:42;1.17;;;0.80;;
41077;SDS011;26823;42.662;23.352;2023-04-25T12:15:13;1.10;;;0.80;;
41077;SDS011;26823;42.662;23.352;2023-04-25T12:17:44;0.80;;;0.80;;
41077;SDS011;26823;42.662;23.352;2023-04-25T12:20:15;1.35;;;0.77;;
41077;SDS011;26823;42.662;23.352;2023-04-25T12:22:42;2.17;;;1.13;;
41077;SDS011;26823;42.662;23.352;2023-04-25T12:25:13;1.10;;;0.85;;
41077;SDS011;26823;42.662;23.352;2023-04-25T12:27:39;0.60;;;0.60;;
41077;SDS011;26823;42.662;23.352;2023-04-25T12:30:09;1.00;;;0.65;;
41077;SDS011;26823;42.662;23.352;2023-04-25T12:32:35;0.98;;;0.55;;
41077;SDS011;26823;42.662;23.352;2023-04-25T12:35:02;5.85;;;0.85;;
41077;SDS011;26823;42.662;23.352;2023-04-25T12:37:28;0.80;;;0.80;;
41077;SDS011;26823;42.662;23.352;2023-04-25T12:39:54;0.57;;;0.50;;
41077;SDS011;26823;42.662;23.352;2023-04-25T12:42:19;0.93;;;0.80;;
41077;SDS011;26823;42.662;23.352;2023-04-25T12:44:45;1.95;;;0.93;;
41077;SDS011;26823;42.662;23.352;2023-04-25T12:47:11;1.55;;;0.65;;
41077;SDS011;26823;42.662;23.352;2023-04-25T12:49:36;2.20;;;0.90;;
41077;SDS011;26823;42.662;23.352;2023-04-25T12:52:02;2.92;;;0.80;;
41077;SDS011;26823;42.662;23.352;2023-04-25T12:54:28;1.23;;;0.90;;
41077;SDS011;26823;42.662;23.352;2023-04-25T12:56:53;1.05;;;0.80;;
41077;SDS011;26823;42.662;23.352;2023-04-25T12:59:19;1.92;;;1.00;;
41077;SDS011;26823;42.662;23.352;2023-04-25T13:01:46;1.17;;;0.90;;
41077;SDS011;26823;42.662;23.352;2023-04-25T13:04:11;1.38;;;0.57;;
41077;SDS011;26823;42.662;23.352;2023-04-25T13:06:37;0.70;;;0.70;;
41077;SDS011;26823;42.662;23.352;2023-04-25T13:09:03;1.65;;;0.82;;
41077;SDS011;26823;42.662;23.352;2023-04-25T13:11:28;1.58;;;1.15;;
41077;SDS011;26823;42.662;23.352;2023-04-25T13:13:54;1.33;;;0.93;;
41077;SDS011;26823;42.662;23.352;2023-04-25T13:16:20;1.50;;;0.85;;
41077;SDS011;26823;42.662;23.352;2023-04-25T13:18:46;1.98;;;1.10;;
41077;SDS011;26823;42.662;23.352;2023-04-25T13:21:11;2.03;;;0.90;;
41077;SDS011;26823;42.662;23.352;2023-04-25T13:23:37;2.35;;;0.85;;
41077;SDS011;26823;42.662;23.352;2023-04-25T13:26:03;1.63;;;1.10;;
41077;SDS011;26823;42.662;23.352;2023-04-25T13:28:28;1.70;;;1.00;;
41077;SDS011;26823;42.662;23.352;2023-04-25T13:30:54;3.78;;;1.40;;
41077;SDS011;26823;42.662;23.352;2023-04-25T13:33:20;2.63;;;1.50;;
41077;SDS011;26823;42.662;23.352;2023-04-25T13:35:46;2.22;;;1.80;;
41077;SDS011;26823;42.662;23.352;2023-04-25T13:38:19;2.83;;;1.67;;
41077;SDS011;26823;42.662;23.352;2023-04-25T13:40:47;2.15;;;1.80;;
41077;SDS011;26823;42.662;23.352;2023-04-25T13:43:13;2.00;;;1.70;;
41077;SDS011;26823;42.662;23.352;2023-04-25T13:45:39;3.45;;;1.70;;
41077;SDS011;26823;42.662;23.352;2023-04-25T13:48:04;4.63;;;1.90;;
41077;SDS011;26823;42.662;23.352;2023-04-25T13:50:30;2.50;;;1.60;;
41077;SDS011;26823;42.662;23.352;2023-04-25T13:52:56;2.83;;;1.92;;
41077;SDS011;26823;42.662;23.352;2023-04-25T13:55:22;4.78;;;2.03;;
41077;SDS011;26823;42.662;23.352;2023-04-25T13:57:47;2.90;;;1.85;;
41077;SDS011;26823;42.662;23.352;2023-04-25T14:00:13;1.98;;;1.80;;
41077;SDS011;26823;42.662;23.352;2023-04-25T14:02:39;4.18;;;1.70;;
41077;SDS011;26823;42.662;23.352;2023-04-25T14:05:04;4.13;;;1.60;;
41077;SDS011;26823;42.662;23.352;2023-04-25T14:07:30;2.70;;;2.10;;
41077;SDS011;26823;42.662;23.352;2023-04-25T14:09:56;2.20;;;1.65;;
41077;SDS011;26823;42.662;23.352;2023-04-25T14:12:24;4.47;;;1.92;;
41077;SDS011;26823;42.662;23.352;2023-04-25T14:14:50;2.13;;;1.52;;
41077;SDS011;26823;42.662;23.352;2023-04-25T14:17:16;2.30;;;1.52;;
41077;SDS011;26823;42.662;23.352;2023-04-25T14:19:41;2.20;;;1.38;;
41077;SDS011;26823;42.662;23.352;2023-04-25T14:22:10;2.75;;;2.40;;
41077;SDS011;26823;42.662;23.352;2023-04-25T14:24:36;4.30;;;1.58;;
41077;SDS011;26823;42.662;23.352;2023-04-25T14:27:01;1.58;;;1.48;;
41077;SDS011;26823;42.662;23.352;2023-04-25T14:29:27;1.38;;;0.90;;
41077;SDS011;26823;42.662;23.352;2023-04-25T14:31:52;0.65;;;0.65;;
41077;SDS011;26823;42.662;23.352;2023-04-25T14:34:19;1.13;;;0.73;;
41077;SDS011;26823;42.662;23.352;2023-04-25T14:36:45;0.90;;;0.82;;
41077;SDS011;26823;42.662;23.352;2023-04-25T14:39:10;1.67;;;1.00;;
41077;SDS011;26823;42.662;23.352;2023-04-25T14:41:37;1.13;;;1.02;;
41077;SDS011;26823;42.662;23.352;2023-04-25T14:44:02;1.05;;;0.85;;
41077;SDS011;26823;42.662;23.352;2023-04-25T14:46:28;1.52;;;0.88;;
41077;SDS011;26823;42.662;23.352;2023-04-25T14:48:53;0.90;;;0.80;;